createdAt,value
2022-09-22T00:00:18.000Z,6.56
2022-09-22T00:01:17.000Z,6.54
2022-09-22T00:02:17.000Z,6.58
2022-09-22T00:03:17.000Z,6.43
2022-09-22T00:04:17.000Z,6.41
2022-09-22T00:05:17.000Z,6.35
2022-09-22T00:06:17.000Z,6.33
2022-09-22T00:07:17.000Z,6.32
2022-09-22T00:08:17.000Z,6.30
2022-09-22T00:09:17.000Z,6.29
2022-09-22T00:10:17.000Z,6.29
2022-09-22T00:11:17.000Z,6.26
2022-09-22T00:12:17.000Z,6.26
2022-09-22T00:13:17.000Z,6.22
2022-09-22T00:14:17.000Z,6.29
2022-09-22T00:15:17.000Z,6.25
2022-09-22T00:16:17.000Z,6.26
2022-09-22T00:17:17.000Z,6.26
2022-09-22T00:18:17.000Z,6.28
2022-09-22T00:19:17.000Z,6.22
2022-09-22T00:20:17.000Z,6.25
2022-09-22T00:21:17.000Z,6.22
2022-09-22T00:22:17.000Z,6.25
2022-09-22T00:23:17.000Z,6.30
2022-09-22T00:24:17.000Z,6.30
2022-09-22T00:25:17.000Z,6.32
2022-09-22T00:26:17.000Z,6.33
2022-09-22T00:27:17.000Z,6.33
2022-09-22T00:28:17.000Z,6.36
2022-09-22T00:29:17.000Z,6.41
2022-09-22T00:30:17.000Z,6.40
2022-09-22T00:31:17.000Z,6.40
2022-09-22T00:32:17.000Z,6.40
2022-09-22T00:33:17.000Z,6.44
2022-09-22T00:34:17.000Z,6.41
2022-09-22T00:35:17.000Z,6.41
2022-09-22T00:36:17.000Z,6.40
2022-09-22T00:37:17.000Z,6.41
2022-09-22T00:38:17.000Z,6.40
2022-09-22T00:39:17.000Z,6.44
2022-09-22T00:40:17.000Z,6.35
2022-09-22T00:41:17.000Z,6.43
2022-09-22T00:42:17.000Z,6.44
2022-09-22T00:43:17.000Z,6.43
2022-09-22T00:44:17.000Z,6.41
2022-09-22T00:45:17.000Z,6.44
2022-09-22T00:46:17.000Z,6.50
2022-09-22T00:47:17.000Z,6.50
2022-09-22T00:48:17.000Z,6.50
2022-09-22T00:49:17.000Z,6.51
2022-09-22T00:50:17.000Z,6.53
2022-09-22T00:51:16.000Z,6.58
2022-09-22T00:52:16.000Z,6.58
2022-09-22T00:53:16.000Z,6.61
2022-09-22T00:54:16.000Z,6.59
2022-09-22T00:55:16.000Z,6.63
2022-09-22T00:56:16.000Z,6.61
2022-09-22T00:57:16.000Z,6.59
2022-09-22T00:58:16.000Z,6.65
2022-09-22T00:59:16.000Z,6.61
2022-09-22T01:00:16.000Z,6.62
2022-09-22T01:01:16.000Z,6.61
2022-09-22T01:02:16.000Z,6.59
2022-09-22T01:03:16.000Z,6.65
2022-09-22T01:04:16.000Z,6.63
2022-09-22T01:05:16.000Z,6.61
2022-09-22T01:06:16.000Z,6.66
2022-09-22T01:07:16.000Z,6.69
2022-09-22T01:08:16.000Z,6.65
2022-09-22T01:09:16.000Z,6.65
2022-09-22T01:10:16.000Z,6.68
2022-09-22T01:11:16.000Z,6.69
2022-09-22T01:12:16.000Z,6.65
2022-09-22T01:13:16.000Z,6.69
2022-09-22T01:14:16.000Z,6.71
2022-09-22T01:15:16.000Z,6.72
2022-09-22T01:16:16.000Z,6.72
2022-09-22T01:17:16.000Z,6.73
2022-09-22T01:18:16.000Z,6.72
2022-09-22T01:19:16.000Z,6.79
2022-09-22T01:20:16.000Z,6.81
2022-09-22T01:21:16.000Z,6.84
2022-09-22T01:22:16.000Z,6.90
2022-09-22T01:23:16.000Z,6.81
2022-09-22T01:24:16.000Z,6.80
2022-09-22T01:25:16.000Z,6.80
2022-09-22T01:26:16.000Z,6.77
2022-09-22T01:27:16.000Z,6.76
2022-09-22T01:28:16.000Z,6.77
2022-09-22T01:29:16.000Z,6.79
2022-09-22T01:30:16.000Z,6.76
2022-09-22T01:31:15.000Z,6.79
2022-09-22T01:32:15.000Z,6.77
2022-09-22T01:33:15.000Z,6.80
2022-09-22T01:34:15.000Z,6.79
2022-09-22T01:35:15.000Z,6.79
2022-09-22T01:36:15.000Z,6.80
2022-09-22T01:37:15.000Z,6.83
2022-09-22T01:38:15.000Z,6.83
2022-09-22T01:39:15.000Z,6.80
2022-09-22T01:40:15.000Z,6.81
2022-09-22T01:41:15.000Z,6.81
2022-09-22T01:42:15.000Z,6.83
2022-09-22T01:43:15.000Z,6.81
2022-09-22T01:44:15.000Z,6.86
2022-09-22T01:45:15.000Z,6.86
2022-09-22T01:46:15.000Z,6.86
2022-09-22T01:47:15.000Z,6.84
2022-09-22T01:48:15.000Z,6.87
2022-09-22T01:49:15.000Z,6.91
2022-09-22T01:50:15.000Z,6.90
2022-09-22T01:51:15.000Z,6.89
2022-09-22T01:52:15.000Z,6.86
2022-09-22T01:53:15.000Z,6.86
2022-09-22T01:54:15.000Z,6.86
2022-09-22T01:55:15.000Z,6.86
2022-09-22T01:56:15.000Z,6.90
2022-09-22T01:57:15.000Z,6.89
2022-09-22T01:58:15.000Z,6.91
2022-09-22T01:59:15.000Z,6.91
2022-09-22T02:00:15.000Z,6.89
2022-09-22T02:01:15.000Z,6.84
2022-09-22T02:02:15.000Z,6.84
2022-09-22T02:03:15.000Z,6.76
2022-09-22T02:04:15.000Z,6.77
2022-09-22T02:05:15.000Z,6.68
2022-09-22T02:06:15.000Z,6.63
2022-09-22T02:07:15.000Z,6.65
2022-09-22T02:08:15.000Z,6.61
2022-09-22T02:09:15.000Z,6.61
2022-09-22T02:10:15.000Z,6.63
2022-09-22T02:11:15.000Z,6.62
2022-09-22T02:12:15.000Z,6.56
2022-09-22T02:13:15.000Z,6.51
2022-09-22T02:14:15.000Z,6.54
2022-09-22T02:15:14.000Z,6.51
2022-09-22T02:16:14.000Z,6.48
2022-09-22T02:17:14.000Z,6.48
2022-09-22T02:18:14.000Z,6.51
2022-09-22T02:19:14.000Z,6.47
2022-09-22T02:20:14.000Z,6.43
2022-09-22T02:21:14.000Z,6.41
2022-09-22T02:22:14.000Z,6.40
2022-09-22T02:23:14.000Z,6.33
2022-09-22T02:24:14.000Z,6.36
2022-09-22T02:25:14.000Z,6.29
2022-09-22T02:26:14.000Z,6.28
2022-09-22T02:27:14.000Z,6.22
2022-09-22T02:28:14.000Z,6.21
2022-09-22T02:29:14.000Z,6.19
2022-09-22T02:30:14.000Z,6.21
2022-09-22T02:31:14.000Z,6.11
2022-09-22T02:32:14.000Z,6.13
2022-09-22T02:33:14.000Z,6.11
2022-09-22T02:34:14.000Z,6.11
2022-09-22T02:35:14.000Z,6.09
2022-09-22T02:36:14.000Z,6.14
2022-09-22T02:37:14.000Z,6.11
2022-09-22T02:38:14.000Z,6.09
2022-09-22T02:39:14.000Z,6.06
2022-09-22T02:40:14.000Z,6.07
2022-09-22T02:41:14.000Z,6.10
2022-09-22T02:42:14.000Z,6.06
2022-09-22T02:43:14.000Z,6.00
2022-09-22T02:44:14.000Z,6.03
2022-09-22T02:45:14.000Z,6.01
2022-09-22T02:46:14.000Z,5.96
2022-09-22T02:47:14.000Z,5.91
2022-09-22T02:48:14.000Z,5.93
2022-09-22T02:49:14.000Z,5.91
2022-09-22T02:50:14.000Z,5.92
2022-09-22T02:51:14.000Z,5.89
2022-09-22T02:52:14.000Z,5.89
2022-09-22T02:53:14.000Z,5.83
2022-09-22T02:54:14.000Z,5.82
2022-09-22T02:55:14.000Z,5.81
2022-09-22T02:56:14.000Z,5.75
2022-09-22T02:57:14.000Z,5.73
2022-09-22T02:58:14.000Z,5.68
2022-09-22T02:59:14.000Z,5.64
2022-09-22T03:00:14.000Z,5.60
2022-09-22T03:01:14.000Z,5.60
2022-09-22T03:02:14.000Z,5.56
2022-09-22T03:03:14.000Z,5.56
2022-09-22T03:04:14.000Z,5.53
2022-09-22T03:05:14.000Z,5.50
2022-09-22T03:06:14.000Z,5.50
2022-09-22T03:07:14.000Z,5.48
2022-09-22T03:08:14.000Z,5.49
2022-09-22T03:09:14.000Z,5.45
2022-09-22T03:10:14.000Z,5.50
2022-09-22T03:10:14.000Z,5.50
2022-09-22T03:11:14.000Z,5.49
2022-09-22T03:11:14.000Z,5.49
2022-09-22T03:12:14.000Z,5.46
2022-09-22T03:12:14.000Z,5.46
2022-09-22T03:13:14.000Z,5.41
2022-09-22T03:13:14.000Z,5.41
2022-09-22T03:14:14.000Z,5.38
2022-09-22T03:14:14.000Z,5.38
2022-09-22T03:15:14.000Z,5.31
2022-09-22T03:16:14.000Z,5.28
2022-09-22T03:17:14.000Z,5.27
2022-09-22T03:18:14.000Z,5.27
2022-09-22T03:19:14.000Z,5.25
2022-09-22T03:20:14.000Z,5.20
2022-09-22T03:21:14.000Z,5.19
2022-09-22T03:22:14.000Z,5.22
2022-09-22T03:23:14.000Z,5.23
2022-09-22T03:24:14.000Z,5.20
2022-09-22T03:25:13.000Z,5.28
2022-09-22T03:26:13.000Z,5.22
2022-09-22T03:27:13.000Z,5.20
2022-09-22T03:28:13.000Z,5.19
2022-09-22T03:29:13.000Z,5.17
2022-09-22T03:30:13.000Z,5.17
2022-09-22T03:31:13.000Z,5.16
2022-09-22T03:32:13.000Z,5.19
2022-09-22T03:33:13.000Z,5.13
2022-09-22T03:34:13.000Z,5.16
2022-09-22T03:35:13.000Z,5.09
2022-09-22T03:36:13.000Z,5.10
2022-09-22T03:37:13.000Z,5.12
2022-09-22T03:38:13.000Z,5.10
2022-09-22T03:39:13.000Z,5.13
2022-09-22T03:40:13.000Z,5.09
2022-09-22T03:41:13.000Z,5.16
2022-09-22T03:42:13.000Z,5.13
2022-09-22T03:43:13.000Z,5.07
2022-09-22T03:44:13.000Z,5.02
2022-09-22T03:45:13.000Z,5.01
2022-09-22T03:46:13.000Z,5.01
2022-09-22T03:47:13.000Z,4.95
2022-09-22T03:48:13.000Z,4.95
2022-09-22T03:49:13.000Z,4.99
2022-09-22T03:50:13.000Z,4.89
2022-09-22T03:51:13.000Z,4.94
2022-09-22T03:52:13.000Z,4.95
2022-09-22T03:53:13.000Z,4.94
2022-09-22T03:54:13.000Z,4.98
2022-09-22T03:55:13.000Z,4.94
2022-09-22T03:56:13.000Z,4.94
2022-09-22T03:57:13.000Z,4.94
2022-09-22T03:58:13.000Z,4.94
2022-09-22T03:59:13.000Z,4.94
2022-09-22T04:00:13.000Z,4.94
2022-09-22T04:01:13.000Z,4.94
2022-09-22T04:02:13.000Z,4.95
2022-09-22T04:03:13.000Z,4.94
2022-09-22T04:04:13.000Z,4.88
2022-09-22T04:05:13.000Z,4.89
2022-09-22T04:06:13.000Z,4.83
2022-09-22T04:07:13.000Z,4.77
2022-09-22T04:08:13.000Z,4.75
2022-09-22T04:09:13.000Z,4.69
2022-09-22T04:10:13.000Z,4.59
2022-09-22T04:11:13.000Z,4.59
2022-09-22T04:12:13.000Z,4.50
2022-09-22T04:13:13.000Z,4.46
2022-09-22T04:14:13.000Z,4.42
2022-09-22T04:15:13.000Z,4.39
2022-09-22T04:16:13.000Z,4.42
2022-09-22T04:17:13.000Z,4.40
2022-09-22T04:18:13.000Z,4.43
2022-09-22T04:19:13.000Z,4.43
2022-09-22T04:20:13.000Z,4.44
2022-09-22T04:21:13.000Z,4.43
2022-09-22T04:22:13.000Z,4.44
2022-09-22T04:23:13.000Z,4.40
2022-09-22T04:24:13.000Z,4.46
2022-09-22T04:25:13.000Z,4.43
2022-09-22T04:26:13.000Z,4.47
2022-09-22T04:27:13.000Z,4.50
2022-09-22T04:28:13.000Z,4.50
2022-09-22T04:29:13.000Z,4.51
2022-09-22T04:30:13.000Z,4.50
2022-09-22T04:31:13.000Z,4.51
2022-09-22T04:32:13.000Z,4.52
2022-09-22T04:33:13.000Z,4.54
2022-09-22T04:34:13.000Z,4.52
2022-09-22T04:35:13.000Z,4.54
2022-09-22T04:36:13.000Z,4.54
2022-09-22T04:37:13.000Z,4.54
2022-09-22T04:38:13.000Z,4.55
2022-09-22T04:39:13.000Z,4.54
2022-09-22T04:40:13.000Z,4.54
2022-09-22T04:41:13.000Z,4.51
2022-09-22T04:42:13.000Z,4.55
2022-09-22T04:43:13.000Z,4.52
2022-09-22T04:44:13.000Z,4.52
2022-09-22T04:45:13.000Z,4.50
2022-09-22T04:46:13.000Z,4.52
2022-09-22T04:47:13.000Z,4.51
2022-09-22T04:48:13.000Z,4.51
2022-09-22T04:49:13.000Z,4.54
2022-09-22T04:50:13.000Z,4.51
2022-09-22T04:51:13.000Z,4.51
2022-09-22T04:52:13.000Z,4.50
2022-09-22T04:53:13.000Z,4.44
2022-09-22T04:54:13.000Z,4.40
2022-09-22T04:55:13.000Z,4.34
2022-09-22T04:56:13.000Z,4.32
2022-09-22T04:57:13.000Z,4.37
2022-09-22T04:58:13.000Z,4.24
2022-09-22T04:59:13.000Z,4.24
2022-09-22T05:00:13.000Z,4.28
2022-09-22T05:01:13.000Z,4.22
2022-09-22T05:02:13.000Z,4.22
2022-09-22T05:03:13.000Z,4.22
2022-09-22T05:04:13.000Z,4.22
2022-09-22T05:05:13.000Z,4.21
2022-09-22T05:06:13.000Z,4.22
2022-09-22T05:07:13.000Z,4.19
2022-09-22T05:08:13.000Z,4.22
2022-09-22T05:09:13.000Z,4.25
2022-09-22T05:10:13.000Z,4.24
2022-09-22T05:11:13.000Z,4.22
2022-09-22T05:12:13.000Z,4.25
2022-09-22T05:13:13.000Z,4.24
2022-09-22T05:14:13.000Z,4.28
2022-09-22T05:15:13.000Z,4.28
2022-09-22T05:16:13.000Z,4.32
2022-09-22T05:17:13.000Z,4.26
2022-09-22T05:18:13.000Z,4.25
2022-09-22T05:19:13.000Z,4.26
2022-09-22T05:20:13.000Z,4.28
2022-09-22T05:21:13.000Z,4.32
2022-09-22T05:22:13.000Z,4.34
2022-09-22T05:23:13.000Z,4.36
2022-09-22T05:24:13.000Z,4.34
2022-09-22T05:25:13.000Z,4.33
2022-09-22T05:26:13.000Z,4.34
2022-09-22T05:27:13.000Z,4.33
2022-09-22T05:28:13.000Z,4.34
2022-09-22T05:29:13.000Z,4.36
2022-09-22T05:30:13.000Z,4.33
2022-09-22T05:31:13.000Z,4.36
2022-09-22T05:32:13.000Z,4.39
2022-09-22T05:33:13.000Z,4.36
2022-09-22T05:34:13.000Z,4.34
2022-09-22T05:35:13.000Z,4.36
2022-09-22T05:36:13.000Z,4.36
2022-09-22T05:37:13.000Z,4.39
2022-09-22T05:38:13.000Z,4.43
2022-09-22T05:39:13.000Z,4.43
2022-09-22T05:40:13.000Z,4.50
2022-09-22T05:41:13.000Z,4.50
2022-09-22T05:42:13.000Z,4.52
2022-09-22T05:43:13.000Z,4.54
2022-09-22T05:44:13.000Z,4.50
2022-09-22T05:45:13.000Z,4.54
2022-09-22T05:46:13.000Z,4.58
2022-09-22T05:47:13.000Z,4.61
2022-09-22T05:48:13.000Z,4.61
2022-09-22T05:49:13.000Z,4.62
2022-09-22T05:50:13.000Z,4.72
2022-09-22T05:51:13.000Z,4.69
2022-09-22T05:52:13.000Z,4.70
2022-09-22T05:53:13.000Z,4.73
2022-09-22T05:54:13.000Z,4.80
2022-09-22T05:55:13.000Z,4.80
2022-09-22T05:56:13.000Z,4.86
2022-09-22T05:57:13.000Z,4.89
2022-09-22T05:58:13.000Z,4.92
2022-09-22T05:59:13.000Z,4.94
2022-09-22T06:00:13.000Z,5.01
2022-09-22T06:01:13.000Z,5.01
2022-09-22T06:02:13.000Z,5.07
2022-09-22T06:03:13.000Z,5.13
2022-09-22T06:04:13.000Z,5.14
2022-09-22T06:05:13.000Z,5.19
2022-09-22T06:06:13.000Z,5.25
2022-09-22T06:07:13.000Z,5.27
2022-09-22T06:08:13.000Z,5.30
2022-09-22T06:09:13.000Z,5.38
2022-09-22T06:10:13.000Z,5.48
2022-09-22T06:11:13.000Z,5.53
2022-09-22T06:12:13.000Z,5.57
2022-09-22T06:13:13.000Z,5.64
2022-09-22T06:14:13.000Z,5.71
2022-09-22T06:15:13.000Z,5.81
2022-09-22T06:16:13.000Z,5.82
2022-09-22T06:17:13.000Z,5.88
2022-09-22T06:18:13.000Z,5.95
2022-09-22T06:19:13.000Z,5.96
2022-09-22T06:20:13.000Z,6.03
2022-09-22T06:21:13.000Z,6.07
2022-09-22T06:22:13.000Z,6.14
2022-09-22T06:23:13.000Z,6.21
2022-09-22T06:24:13.000Z,6.26
2022-09-22T06:25:13.000Z,6.29
2022-09-22T06:26:13.000Z,6.36
2022-09-22T06:27:13.000Z,6.43
2022-09-22T06:28:13.000Z,6.46
2022-09-22T06:29:13.000Z,6.51
2022-09-22T06:30:13.000Z,6.53
2022-09-22T06:31:13.000Z,6.56
2022-09-22T06:32:13.000Z,6.62
2022-09-22T06:33:13.000Z,6.68
2022-09-22T06:34:13.000Z,6.71
2022-09-22T06:35:13.000Z,6.73
2022-09-22T06:36:13.000Z,6.81
2022-09-22T06:37:13.000Z,6.97
2022-09-22T06:38:13.000Z,7.01
2022-09-22T06:39:13.000Z,7.02
2022-09-22T06:40:13.000Z,7.08
2022-09-22T06:41:13.000Z,7.13
2022-09-22T06:42:13.000Z,7.19
2022-09-22T06:43:13.000Z,7.23
2022-09-22T06:44:13.000Z,7.26
2022-09-22T06:45:13.000Z,7.27
2022-09-22T06:46:13.000Z,7.31
2022-09-22T06:47:13.000Z,7.35
2022-09-22T06:48:13.000Z,7.34
2022-09-22T06:49:13.000Z,7.42
2022-09-22T06:50:13.000Z,7.45
2022-09-22T06:51:12.000Z,7.47
2022-09-22T06:52:12.000Z,7.56
2022-09-22T06:53:12.000Z,7.59
2022-09-22T06:54:12.000Z,7.69
2022-09-22T06:55:12.000Z,7.74
2022-09-22T06:56:12.000Z,7.78
2022-09-22T06:57:12.000Z,7.78
2022-09-22T06:58:12.000Z,7.85
2022-09-22T06:59:12.000Z,7.85
2022-09-22T07:00:12.000Z,7.90
2022-09-22T07:01:12.000Z,8.00
2022-09-22T07:02:12.000Z,8.00
2022-09-22T07:03:12.000Z,8.07
2022-09-22T07:04:12.000Z,8.14
2022-09-22T07:05:12.000Z,8.15
2022-09-22T07:06:12.000Z,8.22
2022-09-22T07:07:12.000Z,8.30
2022-09-22T07:08:12.000Z,8.33
2022-09-22T07:09:12.000Z,8.37
2022-09-22T07:10:12.000Z,8.47
2022-09-22T07:11:12.000Z,8.50
2022-09-22T07:12:12.000Z,8.54
2022-09-22T07:13:12.000Z,8.58
2022-09-22T07:14:12.000Z,8.58
2022-09-22T07:15:12.000Z,8.60
2022-09-22T07:16:12.000Z,8.63
2022-09-22T07:17:12.000Z,8.71
2022-09-22T07:18:12.000Z,8.76
2022-09-22T07:19:12.000Z,8.79
2022-09-22T07:20:12.000Z,8.81
2022-09-22T07:21:12.000Z,8.87
2022-09-22T07:22:12.000Z,8.88
2022-09-22T07:23:12.000Z,8.96
2022-09-22T07:24:12.000Z,8.99
2022-09-22T07:25:12.000Z,8.97
2022-09-22T07:26:12.000Z,9.01
2022-09-22T07:27:12.000Z,9.09
2022-09-22T07:28:12.000Z,9.12
2022-09-22T07:29:12.000Z,9.18
2022-09-22T07:30:12.000Z,9.21
2022-09-22T07:31:11.000Z,9.28
2022-09-22T07:32:11.000Z,9.31
2022-09-22T07:33:11.000Z,9.38
2022-09-22T07:34:11.000Z,9.43
2022-09-22T07:35:11.000Z,9.49
2022-09-22T07:36:11.000Z,9.46
2022-09-22T07:37:11.000Z,9.50
2022-09-22T07:38:11.000Z,9.56
2022-09-22T07:39:11.000Z,9.58
2022-09-22T07:40:11.000Z,9.60
2022-09-22T07:41:11.000Z,9.61
2022-09-22T07:42:11.000Z,9.61
2022-09-22T07:43:11.000Z,9.64
2022-09-22T07:44:11.000Z,9.70
2022-09-22T07:45:11.000Z,9.73
2022-09-22T07:46:11.000Z,9.75
2022-09-22T07:47:11.000Z,9.78
2022-09-22T07:48:11.000Z,9.82
2022-09-22T07:49:11.000Z,9.83
2022-09-22T07:50:11.000Z,9.93
2022-09-22T07:51:11.000Z,9.97
2022-09-22T07:52:11.000Z,9.97
2022-09-22T07:53:11.000Z,10.00
2022-09-22T07:54:11.000Z,10.09
2022-09-22T07:55:11.000Z,10.12
2022-09-22T07:56:11.000Z,10.19
2022-09-22T07:57:11.000Z,10.24
2022-09-22T07:58:11.000Z,10.28
2022-09-22T07:59:11.000Z,10.25
2022-09-22T08:00:10.000Z,10.33
2022-09-22T08:01:10.000Z,10.33
2022-09-22T08:02:10.000Z,10.33
2022-09-22T08:03:10.000Z,10.40
2022-09-22T08:04:10.000Z,10.42
2022-09-22T08:05:10.000Z,10.46
2022-09-22T08:06:10.000Z,10.55
2022-09-22T08:07:10.000Z,10.59
2022-09-22T08:08:10.000Z,10.63
2022-09-22T08:09:10.000Z,10.68
2022-09-22T08:10:10.000Z,10.70
2022-09-22T08:11:10.000Z,10.77
2022-09-22T08:12:10.000Z,10.74
2022-09-22T08:13:10.000Z,10.80
2022-09-22T08:14:10.000Z,10.84
2022-09-22T08:15:10.000Z,10.88
2022-09-22T08:16:10.000Z,10.95
2022-09-22T08:17:10.000Z,10.96
2022-09-22T08:18:10.000Z,11.02
2022-09-22T08:19:10.000Z,11.06
2022-09-22T08:20:10.000Z,11.09
2022-09-22T08:21:10.000Z,11.16
2022-09-22T08:22:10.000Z,11.13
2022-09-22T08:23:10.000Z,11.19
2022-09-22T08:24:10.000Z,11.24
2022-09-22T08:25:09.000Z,11.32
2022-09-22T08:26:09.000Z,11.32
2022-09-22T08:27:09.000Z,11.36
2022-09-22T08:28:09.000Z,11.36
2022-09-22T08:29:09.000Z,11.39
2022-09-22T08:30:09.000Z,11.44
2022-09-22T08:31:09.000Z,11.49
2022-09-22T08:32:09.000Z,11.54
2022-09-22T08:33:09.000Z,11.57
2022-09-22T08:34:09.000Z,11.61
2022-09-22T08:35:09.000Z,11.62
2022-09-22T08:36:09.000Z,11.68
2022-09-22T08:37:09.000Z,11.67
2022-09-22T08:38:09.000Z,11.74
2022-09-22T08:39:09.000Z,11.78
2022-09-22T08:40:09.000Z,11.83
2022-09-22T08:41:09.000Z,11.87
2022-09-22T08:42:09.000Z,11.90
2022-09-22T08:43:09.000Z,11.94
2022-09-22T08:44:09.000Z,11.97
2022-09-22T08:45:09.000Z,11.97
2022-09-22T08:46:08.000Z,12.01
2022-09-22T08:47:08.000Z,12.04
2022-09-22T08:48:08.000Z,12.06
2022-09-22T08:49:08.000Z,12.09
2022-09-22T08:50:08.000Z,12.15
2022-09-22T08:51:08.000Z,12.20
2022-09-22T08:52:08.000Z,12.21
2022-09-22T08:53:08.000Z,12.26
2022-09-22T08:54:08.000Z,12.29
2022-09-22T08:55:08.000Z,12.33
2022-09-22T08:56:08.000Z,12.31
2022-09-22T08:57:08.000Z,12.39
2022-09-22T08:58:08.000Z,12.44
2022-09-22T08:59:08.000Z,12.42
2022-09-22T09:00:08.000Z,12.46
2022-09-22T09:01:08.000Z,12.46
2022-09-22T09:02:08.000Z,12.52
2022-09-22T09:03:08.000Z,12.54
2022-09-22T09:04:07.000Z,12.59
2022-09-22T09:05:07.000Z,12.60
2022-09-22T09:06:07.000Z,12.63
2022-09-22T09:07:07.000Z,12.69
2022-09-22T09:08:07.000Z,12.71
2022-09-22T09:09:07.000Z,12.75
2022-09-22T09:10:07.000Z,12.79
2022-09-22T09:11:07.000Z,12.87
2022-09-22T09:12:07.000Z,12.87
2022-09-22T09:13:07.000Z,12.85
2022-09-22T09:14:07.000Z,12.89
2022-09-22T09:15:07.000Z,12.88
2022-09-22T09:16:07.000Z,12.93
2022-09-22T09:17:07.000Z,12.93
2022-09-22T09:18:07.000Z,12.93
2022-09-22T09:19:07.000Z,12.97
2022-09-22T09:20:07.000Z,13.02
2022-09-22T09:20:07.000Z,13.02
2022-09-22T09:21:06.000Z,13.00
2022-09-22T09:21:06.000Z,13.00
2022-09-22T09:22:06.000Z,13.04
2022-09-22T09:22:06.000Z,13.04
2022-09-22T09:23:06.000Z,13.03
2022-09-22T09:23:06.000Z,13.03
2022-09-22T09:24:06.000Z,13.06
2022-09-22T09:24:06.000Z,13.06
2022-09-22T09:25:06.000Z,13.12
2022-09-22T09:26:06.000Z,13.09
2022-09-22T09:27:06.000Z,13.11
2022-09-22T09:28:06.000Z,13.14
2022-09-22T09:29:06.000Z,13.14
2022-09-22T09:30:06.000Z,13.17
2022-09-22T09:31:06.000Z,13.20
2022-09-22T09:32:06.000Z,13.20
2022-09-22T09:33:06.000Z,13.20
2022-09-22T09:34:06.000Z,13.20
2022-09-22T09:35:06.000Z,13.25
2022-09-22T09:36:05.000Z,13.25
2022-09-22T09:37:05.000Z,13.25
2022-09-22T09:38:05.000Z,13.29
2022-09-22T09:39:05.000Z,13.32
2022-09-22T09:40:05.000Z,13.37
2022-09-22T09:41:05.000Z,13.36
2022-09-22T09:42:05.000Z,13.43
2022-09-22T09:43:05.000Z,13.49
2022-09-22T09:44:05.000Z,13.52
2022-09-22T09:45:05.000Z,13.55
2022-09-22T09:46:05.000Z,13.61
2022-09-22T09:47:05.000Z,13.62
2022-09-22T09:48:05.000Z,13.61
2022-09-22T09:49:05.000Z,13.61
2022-09-22T09:50:05.000Z,13.56
2022-09-22T09:51:04.000Z,13.52
2022-09-22T09:52:04.000Z,13.49
2022-09-22T09:53:04.000Z,13.40
2022-09-22T09:54:04.000Z,13.40
2022-09-22T09:55:04.000Z,13.40
2022-09-22T09:56:04.000Z,13.40
2022-09-22T09:57:04.000Z,13.38
2022-09-22T09:58:04.000Z,13.40
2022-09-22T09:59:04.000Z,13.44
2022-09-22T10:00:04.000Z,13.47
2022-09-22T10:01:04.000Z,13.46
2022-09-22T10:02:04.000Z,13.52
2022-09-22T10:03:04.000Z,13.55
2022-09-22T10:04:03.000Z,13.56
2022-09-22T10:05:03.000Z,13.59
2022-09-22T10:06:03.000Z,13.61
2022-09-22T10:07:03.000Z,13.63
2022-09-22T10:08:03.000Z,13.65
2022-09-22T10:09:03.000Z,13.71
2022-09-22T10:10:03.000Z,13.76
2022-09-22T10:11:03.000Z,13.79
2022-09-22T10:12:03.000Z,13.84
2022-09-22T10:13:03.000Z,13.91
2022-09-22T10:14:03.000Z,13.96
2022-09-22T10:15:03.000Z,13.99
2022-09-22T10:16:03.000Z,14.07
2022-09-22T10:17:02.000Z,14.09
2022-09-22T10:18:02.000Z,14.12
2022-09-22T10:19:02.000Z,14.13
2022-09-22T10:20:02.000Z,14.13
2022-09-22T10:21:02.000Z,14.19
2022-09-22T10:22:02.000Z,14.20
2022-09-22T10:23:02.000Z,14.21
2022-09-22T10:24:02.000Z,14.24
2022-09-22T10:25:02.000Z,14.21
2022-09-22T10:26:02.000Z,14.24
2022-09-22T10:27:02.000Z,14.24
2022-09-22T10:28:02.000Z,14.25
2022-09-22T10:29:01.000Z,14.27
2022-09-22T10:30:01.000Z,14.27
2022-09-22T10:31:01.000Z,14.29
2022-09-22T10:32:01.000Z,14.31
2022-09-22T10:33:01.000Z,14.35
2022-09-22T10:34:01.000Z,14.35
2022-09-22T10:35:01.000Z,14.37
2022-09-22T10:36:01.000Z,14.35
2022-09-22T10:37:01.000Z,14.34
2022-09-22T10:38:01.000Z,14.35
2022-09-22T10:39:01.000Z,14.34
2022-09-22T10:40:01.000Z,14.34
2022-09-22T10:41:00.000Z,14.37
2022-09-22T10:42:00.000Z,14.35
2022-09-22T10:43:00.000Z,14.34
2022-09-22T10:44:00.000Z,14.32
2022-09-22T10:45:00.000Z,14.39
2022-09-22T10:46:00.000Z,14.39
2022-09-22T10:47:00.000Z,14.42
2022-09-22T10:48:00.000Z,14.42
2022-09-22T10:49:00.000Z,14.44
2022-09-22T10:50:00.000Z,14.47
2022-09-22T10:51:00.000Z,14.52
2022-09-22T10:51:59.000Z,14.53
2022-09-22T10:52:59.000Z,14.53
2022-09-22T10:53:59.000Z,14.57
2022-09-22T10:54:59.000Z,14.67
2022-09-22T10:55:59.000Z,14.69
2022-09-22T10:56:59.000Z,14.68
2022-09-22T10:57:59.000Z,14.67
2022-09-22T10:58:59.000Z,14.71
2022-09-22T10:59:59.000Z,14.71
2022-09-22T11:00:59.000Z,14.72
2022-09-22T11:01:59.000Z,14.72
2022-09-22T11:02:59.000Z,14.74
2022-09-22T11:03:58.000Z,14.75
2022-09-22T11:04:58.000Z,14.78
2022-09-22T11:05:58.000Z,14.81
2022-09-22T11:06:58.000Z,14.80
2022-09-22T11:07:58.000Z,14.78
2022-09-22T11:08:58.000Z,14.80
2022-09-22T11:09:58.000Z,14.80
2022-09-22T11:10:58.000Z,14.75
2022-09-22T11:11:58.000Z,14.80
2022-09-22T11:12:58.000Z,14.81
2022-09-22T11:13:58.000Z,14.83
2022-09-22T11:14:58.000Z,14.81
2022-09-22T11:15:57.000Z,14.83
2022-09-22T11:16:57.000Z,14.84
2022-09-22T11:17:57.000Z,14.86
2022-09-22T11:18:57.000Z,14.90
2022-09-22T11:19:57.000Z,14.88
2022-09-22T11:20:57.000Z,14.94
2022-09-22T11:21:57.000Z,14.93
2022-09-22T11:22:57.000Z,14.94
2022-09-22T11:23:57.000Z,14.90
2022-09-22T11:24:57.000Z,14.93
2022-09-22T11:24:57.000Z,14.93
2022-09-22T11:25:57.000Z,14.90
2022-09-22T11:25:57.000Z,14.90
2022-09-22T11:26:56.000Z,14.88
2022-09-22T11:26:56.000Z,14.88
2022-09-22T11:27:56.000Z,14.88
2022-09-22T11:27:56.000Z,14.88
2022-09-22T11:28:56.000Z,14.88
2022-09-22T11:28:56.000Z,14.88
2022-09-22T11:29:56.000Z,14.93
2022-09-22T11:30:56.000Z,14.95
2022-09-22T11:31:56.000Z,15.03
2022-09-22T11:32:56.000Z,15.05
2022-09-22T11:33:56.000Z,15.11
2022-09-22T11:34:56.000Z,15.03
2022-09-22T11:35:56.000Z,15.06
2022-09-22T11:36:56.000Z,15.12
2022-09-22T11:37:55.000Z,15.11
2022-09-22T11:38:55.000Z,15.13
2022-09-22T11:39:55.000Z,15.15
2022-09-22T11:40:55.000Z,15.15
2022-09-22T11:41:55.000Z,15.12
2022-09-22T11:42:55.000Z,15.09
2022-09-22T11:43:55.000Z,15.11
2022-09-22T11:44:55.000Z,15.11
2022-09-22T11:45:55.000Z,15.11
2022-09-22T11:46:55.000Z,15.12
2022-09-22T11:47:55.000Z,15.08
2022-09-22T11:48:55.000Z,15.09
2022-09-22T11:49:54.000Z,15.01
2022-09-22T11:50:54.000Z,15.03
2022-09-22T11:51:54.000Z,15.01
2022-09-22T11:52:54.000Z,14.99
2022-09-22T11:53:54.000Z,15.01
2022-09-22T11:54:54.000Z,15.02
2022-09-22T11:55:54.000Z,15.02
2022-09-22T11:56:54.000Z,15.03
2022-09-22T11:57:54.000Z,15.05
2022-09-22T11:58:54.000Z,15.05
2022-09-22T11:59:54.000Z,15.03
2022-09-22T12:00:53.000Z,15.03
2022-09-22T12:01:53.000Z,15.03
2022-09-22T12:02:53.000Z,15.05
2022-09-22T12:03:53.000Z,15.09
2022-09-22T12:04:53.000Z,15.15
2022-09-22T12:05:53.000Z,15.19
2022-09-22T12:06:53.000Z,15.23
2022-09-22T12:07:53.000Z,15.23
2022-09-22T12:08:53.000Z,15.28
2022-09-22T12:09:53.000Z,15.28
2022-09-22T12:10:53.000Z,15.30
2022-09-22T12:11:53.000Z,15.23
2022-09-22T12:12:52.000Z,15.19
2022-09-22T12:13:52.000Z,15.17
2022-09-22T12:14:52.000Z,15.17
2022-09-22T12:15:52.000Z,15.13
2022-09-22T12:16:52.000Z,15.12
2022-09-22T12:17:52.000Z,15.12
2022-09-22T12:18:52.000Z,15.12
2022-09-22T12:19:52.000Z,15.12
2022-09-22T12:20:52.000Z,15.13
2022-09-22T12:21:52.000Z,15.15
2022-09-22T12:22:52.000Z,15.20
2022-09-22T12:23:51.000Z,15.26
2022-09-22T12:24:51.000Z,15.27
2022-09-22T12:25:51.000Z,15.30
2022-09-22T12:26:51.000Z,15.31
2022-09-22T12:27:51.000Z,15.36
2022-09-22T12:28:51.000Z,15.38
2022-09-22T12:29:51.000Z,15.41
2022-09-22T12:30:51.000Z,15.45
2022-09-22T12:31:51.000Z,15.46
2022-09-22T12:32:51.000Z,15.45
2022-09-22T12:33:51.000Z,15.51
2022-09-22T12:34:50.000Z,15.51
2022-09-22T12:35:50.000Z,15.57
2022-09-22T12:36:50.000Z,15.61
2022-09-22T12:37:50.000Z,15.64
2022-09-22T12:38:50.000Z,15.64
2022-09-22T12:39:50.000Z,15.60
2022-09-22T12:40:50.000Z,15.60
2022-09-22T12:41:50.000Z,15.61
2022-09-22T12:42:50.000Z,15.63
2022-09-22T12:43:50.000Z,15.68
2022-09-22T12:44:50.000Z,15.70
2022-09-22T12:45:49.000Z,15.67
2022-09-22T12:46:49.000Z,15.67
2022-09-22T12:47:49.000Z,15.72
2022-09-22T12:48:49.000Z,15.67
2022-09-22T12:49:49.000Z,15.70
2022-09-22T12:50:49.000Z,15.75
2022-09-22T12:51:49.000Z,15.76
2022-09-22T12:52:49.000Z,15.81